Time;durP1;ratioP1;P1;durP2;ratioP2;P2;SDS_P1;SDS_P2;PMS_P1;PMS_P2;Temp;Humidity;BMP_temperature;BMP_pressure;BME280_temperature;BME280_humidity;BME280_pressure;Samples;Min_cycle;Max_cycle;Signal;HPM_P1;HPM_P2
2022/06/10 00:00:35;;;;;;;3.05;1.48;;;14.90;99.90;;;;;;5092295;28;20031;-79
2022/06/10 00:03:01;;;;;;;7.32;2.08;;;14.90;99.90;;;;;;5094558;28;20377;-81
2022/06/10 00:05:29;;;;;;;4.32;1.27;;;14.90;99.90;;;;;;5092551;28;20058;-80
2022/06/10 00:07:55;;;;;;;5.45;1.38;;;14.90;99.90;;;;;;5094526;28;20039;-80
2022/06/10 00:10:23;;;;;;;2.30;1.40;;;14.80;99.90;;;;;;5111759;28;20024;-81
2022/06/10 00:12:49;;;;;;;3.90;1.88;;;14.80;99.90;;;;;;5076111;28;20028;-80
2022/06/10 00:15:15;;;;;;;3.20;1.50;;;14.80;99.90;;;;;;5091925;28;20405;-81
2022/06/10 00:17:41;;;;;;;2.28;1.58;;;14.80;99.90;;;;;;5093060;28;20035;-79
2022/06/10 00:20:09;;;;;;;5.28;1.50;;;14.80;99.90;;;;;;5092421;28;20032;-81
2022/06/10 00:22:35;;;;;;;5.55;1.85;;;14.80;99.90;;;;;;5093178;28;20024;-79
2022/06/10 00:25:00;;;;;;;2.90;1.40;;;14.80;99.90;;;;;;5093463;28;20028;-81
2022/06/10 00:27:27;;;;;;;7.97;1.63;;;14.80;99.90;;;;;;5100221;28;20027;-80
2022/06/10 00:29:52;;;;;;;4.32;1.23;;;14.80;99.90;;;;;;5098175;28;20036;-82
2022/06/10 00:32:18;;;;;;;3.85;1.38;;;14.80;99.90;;;;;;5118059;28;20072;-81
2022/06/10 00:34:44;;;;;;;5.63;1.20;;;14.80;99.90;;;;;;5113935;28;20028;-80
2022/06/10 00:37:09;;;;;;;3.40;1.60;;;14.80;99.90;;;;;;5092795;28;20123;-81
2022/06/10 00:39:36;;;;;;;6.97;1.77;;;14.70;99.90;;;;;;5101840;28;20063;-80
2022/06/10 00:42:04;;;;;;;3.83;1.40;;;14.70;99.90;;;;;;5093389;28;20032;-80
2022/06/10 00:44:39;;;;;;;2.45;1.38;;;14.70;99.90;;;;;;5109043;28;20135;-80
2022/06/10 00:47:14;;;;;;;3.67;1.40;;;14.70;99.90;;;;;;5099599;28;20088;-79
2022/06/10 00:49:40;;;;;;;7.63;1.58;;;14.70;99.90;;;;;;5101254;28;20028;-82
2022/06/10 00:52:22;;;;;;;4.75;1.52;;;14.70;99.90;;;;;;5092419;28;20056;-82
2022/06/10 00:54:51;;;;;;;5.07;1.50;;;14.70;99.90;;;;;;5115028;28;20032;-80
2022/06/10 00:57:27;;;;;;;4.55;1.40;;;14.70;99.90;;;;;;5097604;28;20028;-80
2022/06/10 00:59:58;;;;;;;4.05;1.27;;;14.70;99.90;;;;;;5092104;28;20039;-82
2022/06/10 01:02:27;;;;;;;3.78;1.30;;;14.70;99.90;;;;;;5091736;28;20032;-80
2022/06/10 01:04:58;;;;;;;4.93;1.30;;;14.70;99.90;;;;;;5092278;28;20028;-83
2022/06/10 01:07:45;;;;;;;6.80;1.20;;;14.70;99.90;;;;;;5093017;28;20024;-80
2022/06/10 01:10:15;;;;;;;5.00;1.50;;;14.70;99.90;;;;;;5092241;28;20097;-84
2022/06/10 01:13:02;;;;;;;3.22;1.50;;;14.60;99.90;;;;;;5091914;28;20078;-85
2022/06/10 01:15:34;;;;;;;6.22;1.60;;;14.60;99.90;;;;;;5092519;28;20067;-84
2022/06/10 01:18:06;;;;;;;4.88;1.30;;;14.60;99.90;;;;;;5093453;28;20394;-84
2022/06/10 01:20:53;;;;;;;4.07;1.60;;;14.60;99.90;;;;;;5092973;28;20032;-84
2022/06/10 01:23:39;;;;;;;6.65;1.23;;;14.60;99.90;;;;;;5093400;28;20504;-84
2022/06/10 01:26:13;;;;;;;5.10;1.80;;;14.60;99.90;;;;;;5079583;28;20028;-84
2022/06/10 01:28:55;;;;;;;6.72;1.48;;;14.60;99.90;;;;;;5096821;28;20027;-83
2022/06/10 01:31:36;;;;;;;5.57;1.92;;;14.60;99.90;;;;;;5097398;28;20457;-84
2022/06/10 01:34:26;;;;;;;3.85;1.33;;;14.60;99.90;;;;;;5079677;28;20067;-84
2022/06/10 01:37:02;;;;;;;3.83;1.35;;;14.60;99.90;;;;;;5097370;28;20086;-84
2022/06/10 01:39:38;;;;;;;9.20;1.30;;;14.50;99.90;;;;;;5078782;28;20480;-84
2022/06/10 01:42:33;;;;;;;6.78;1.65;;;14.50;99.90;;;;;;5079270;28;20032;-84
2022/06/10 01:45:01;;;;;;;6.22;1.42;;;14.50;99.90;;;;;;5096392;28;20120;-84
2022/06/10 01:47:57;;;;;;;3.72;1.33;;;14.50;99.90;;;;;;5078259;28;20118;-84
2022/06/10 01:50:41;;;;;;;5.28;1.40;;;14.50;99.90;;;;;;5095837;28;20032;-84
2022/06/10 01:53:18;;;;;;;3.78;1.60;;;14.50;99.90;;;;;;5096016;28;20208;-85
2022/06/10 01:55:46;;;;;;;3.78;1.35;;;14.50;99.90;;;;;;5096209;28;20032;-85
2022/06/10 01:58:42;;;;;;;2.50;1.33;;;14.50;99.90;;;;;;5079151;28;20032;-85
2022/06/10 02:01:14;;;;;;;5.60;1.40;;;14.50;99.90;;;;;;5083144;28;20044;-85
2022/06/10 02:03:53;;;;;;;6.53;1.45;;;14.50;99.90;;;;;;5095207;28;20024;-84
2022/06/10 02:06:46;;;;;;;3.53;1.30;;;14.50;99.90;;;;;;5078692;28;20020;-84
2022/06/10 02:09:16;;;;;;;4.18;1.40;;;14.50;99.90;;;;;;5096834;28;20039;-85
2022/06/10 02:11:46;;;;;;;4.43;1.48;;;14.50;99.90;;;;;;5095100;28;20047;-84
2022/06/10 02:14:20;;;;;;;4.90;1.30;;;14.50;99.90;;;;;;5078935;28;20052;-84
2022/06/10 02:16:48;;;;;;;2.38;1.40;;;14.50;99.90;;;;;;5096017;28;20046;-82
2022/06/10 02:19:19;;;;;;;7.68;1.73;;;14.50;99.90;;;;;;5096232;28;20036;-82
2022/06/10 02:21:53;;;;;;;4.88;1.33;;;14.50;99.90;;;;;;5094696;28;20071;-82
2022/06/10 02:24:40;;;;;;;4.88;1.42;;;14.50;99.90;;;;;;5096481;28;20043;-82
2022/06/10 02:27:15;;;;;;;8.30;1.60;;;14.40;99.90;;;;;;5095158;28;20020;-82
2022/06/10 02:29:50;;;;;;;5.07;1.42;;;14.40;99.90;;;;;;5111490;28;20115;-81
2022/06/10 02:32:15;;;;;;;5.63;1.42;;;14.40;99.90;;;;;;5095762;28;20461;-82
2022/06/10 02:34:41;;;;;;;4.30;1.38;;;14.40;99.90;;;;;;5094189;28;20024;-84
2022/06/10 02:37:21;;;;;;;5.25;1.52;;;14.30;99.90;;;;;;5095265;28;20032;-84
2022/06/10 02:40:01;;;;;;;7.15;1.40;;;14.30;99.90;;;;;;5111387;28;20024;-84
2022/06/10 02:42:34;;;;;;;4.18;1.65;;;14.30;99.90;;;;;;5095915;28;20044;-83
2022/06/10 02:45:25;;;;;;;4.15;1.58;;;14.20;99.90;;;;;;5095036;28;20093;-83
2022/06/10 02:48:04;;;;;;;3.58;1.55;;;14.20;99.90;;;;;;5094334;28;20107;-83
2022/06/10 02:50:29;;;;;;;5.57;2.00;;;14.20;99.90;;;;;;5095364;28;20028;-80
2022/06/10 02:52:56;;;;;;;9.38;1.65;;;14.20;99.90;;;;;;5094547;28;20061;-83
2022/06/10 02:55:26;;;;;;;4.72;1.50;;;14.20;99.90;;;;;;5094886;28;20024;-84
2022/06/10 03:01:13;;;;;;;5.97;1.60;;;14.20;99.90;;;;;;5095140;28;20051;-83
2022/06/10 03:03:50;;;;;;;7.47;1.63;;;14.20;99.90;;;;;;5095038;28;20046;-83
2022/06/10 03:06:49;;;;;;;5.30;1.60;;;14.20;99.90;;;;;;5095540;28;20035;-84
2022/06/10 03:09:56;;;;;;;4.13;1.52;;;14.10;99.90;;;;;;5063881;28;20118;-83
2022/06/10 03:12:37;;;;;;;6.90;1.55;;;14.10;99.90;;;;;;5095266;28;20020;-83
2022/06/10 03:15:41;;;;;;;3.25;1.15;;;14.00;99.90;;;;;;5094097;28;20052;-83
2022/06/10 03:18:39;;;;;;;4.47;1.40;;;14.00;99.90;;;;;;5094126;28;20020;-83
2022/06/10 03:21:16;;;;;;;6.05;1.30;;;14.00;99.90;;;;;;5095271;28;20032;-83
2022/06/10 03:23:58;;;;;;;4.35;1.50;;;14.00;99.90;;;;;;5094620;28;20032;-84
2022/06/10 03:26:41;;;;;;;6.10;2.05;;;14.00;99.90;;;;;;5095019;28;20020;-84
2022/06/10 03:29:26;;;;;;;5.72;1.95;;;14.00;99.90;;;;;;5094195;28;20039;-84
2022/06/10 03:31:58;;;;;;;5.38;1.80;;;14.00;99.90;;;;;;5093453;28;20039;-84
2022/06/10 03:34:35;;;;;;;6.10;1.48;;;14.00;99.90;;;;;;5095022;28;20024;-84
2022/06/10 03:37:03;;;;;;;4.00;1.30;;;14.00;99.90;;;;;;5111145;28;20042;-83
2022/06/10 03:39:29;;;;;;;5.00;1.50;;;14.00;99.90;;;;;;5110478;28;20115;-83
2022/06/10 03:42:04;;;;;;;4.90;1.50;;;14.00;99.90;;;;;;5094239;28;20032;-83
2022/06/10 03:44:31;;;;;;;4.28;1.30;;;14.00;99.90;;;;;;5094941;28;20028;-83
2022/06/10 03:46:57;;;;;;;3.72;1.52;;;14.00;99.90;;;;;;5092419;28;20034;-84
2022/06/10 03:49:49;;;;;;;2.78;1.63;;;14.00;99.90;;;;;;5093771;28;20024;-85
2022/06/10 03:52:19;;;;;;;5.13;1.63;;;14.10;99.90;;;;;;5093611;28;20031;-84
2022/06/10 03:54:45;;;;;;;3.83;1.98;;;14.10;99.90;;;;;;5092890;28;20477;-84
2022/06/10 03:57:11;;;;;;;4.10;1.60;;;14.00;99.90;;;;;;5093564;28;20031;-84
2022/06/10 03:59:36;;;;;;;4.43;1.70;;;14.10;99.90;;;;;;5092893;28;20028;-84
2022/06/10 04:02:02;;;;;;;5.45;1.63;;;14.00;99.90;;;;;;5094534;28;20036;-85
2022/06/10 04:04:28;;;;;;;5.70;1.83;;;14.00;99.90;;;;;;5093741;28;20020;-85
2022/06/10 04:06:53;;;;;;;4.57;1.67;;;14.00;99.90;;;;;;5092893;28;20468;-84
2022/06/10 04:09:19;;;;;;;5.28;1.95;;;14.10;99.90;;;;;;5093444;28;20040;-85
2022/06/10 04:11:45;;;;;;;6.63;1.67;;;14.10;99.90;;;;;;5093869;28;20031;-83
2022/06/10 04:14:11;;;;;;;4.18;1.98;;;14.10;99.90;;;;;;5093133;28;20048;-83
2022/06/10 04:16:36;;;;;;;3.00;1.60;;;14.10;99.90;;;;;;5092946;28;20035;-82
2022/06/10 04:19:02;;;;;;;3.72;1.70;;;14.10;99.90;;;;;;5093033;28;20515;-83
2022/06/10 04:21:27;;;;;;;6.03;2.03;;;14.10;99.90;;;;;;5094227;28;20114;-83
2022/06/10 04:23:53;;;;;;;3.25;1.90;;;14.00;99.90;;;;;;5092403;28;20385;-83
2022/06/10 04:26:19;;;;;;;5.65;1.92;;;13.90;99.90;;;;;;5093251;28;20080;-83
2022/06/10 04:28:44;;;;;;;6.43;1.70;;;13.90;99.90;;;;;;5093523;28;20028;-82
2022/06/10 04:31:10;;;;;;;4.90;1.80;;;13.90;99.90;;;;;;5093902;28;20024;-82
2022/06/10 04:33:37;;;;;;;6.38;2.38;;;13.90;99.90;;;;;;5093402;28;20076;-81
2022/06/10 04:36:03;;;;;;;7.32;2.15;;;13.90;99.90;;;;;;5092698;28;20024;-82
2022/06/10 04:38:29;;;;;;;8.48;2.28;;;14.00;99.90;;;;;;5092891;28;20070;-82
2022/06/10 04:40:54;;;;;;;4.82;2.25;;;14.00;99.90;;;;;;5092472;28;20028;-82
2022/06/10 04:43:20;;;;;;;5.50;1.80;;;14.10;99.90;;;;;;5092815;28;20449;-82
2022/06/10 04:45:52;;;;;;;6.57;1.80;;;14.10;99.90;;;;;;5092287;28;20028;-81
2022/06/10 04:48:18;;;;;;;3.15;1.98;;;14.10;99.90;;;;;;5093035;28;20124;-82
2022/06/10 04:50:45;;;;;;;3.92;1.70;;;14.10;99.90;;;;;;5093449;28;20032;-81
2022/06/10 04:53:11;;;;;;;5.57;1.42;;;14.10;99.90;;;;;;5092596;28;20488;-82
2022/06/10 04:55:37;;;;;;;6.07;2.10;;;14.10;99.90;;;;;;5093199;28;20057;-79
2022/06/10 04:58:03;;;;;;;6.20;1.98;;;14.20;99.90;;;;;;5094588;28;20024;-81
2022/06/10 05:00:36;;;;;;;3.45;1.75;;;14.20;99.90;;;;;;5113693;28;20086;-82
2022/06/10 05:03:02;;;;;;;4.65;1.80;;;14.20;99.90;;;;;;5096888;28;20036;-82
2022/06/10 05:05:29;;;;;;;5.93;2.08;;;14.20;99.90;;;;;;5097395;28;20050;-82
2022/06/10 05:07:55;;;;;;;8.48;1.90;;;14.20;99.90;;;;;;5113157;28;20024;-84
2022/06/10 05:10:21;;;;;;;5.88;1.95;;;14.20;99.90;;;;;;5113960;28;20028;-84
2022/06/10 05:12:47;;;;;;;4.22;2.05;;;14.30;99.90;;;;;;5096145;28;20028;-84
2022/06/10 05:15:14;;;;;;;5.13;1.90;;;14.30;99.90;;;;;;5113441;28;20055;-84
2022/06/10 05:17:41;;;;;;;9.35;1.92;;;14.30;99.90;;;;;;5097020;28;20024;-83
2022/06/10 05:20:08;;;;;;;4.72;1.92;;;14.30;99.90;;;;;;5097670;28;20069;-84
2022/06/10 05:22:34;;;;;;;4.85;1.67;;;14.40;99.90;;;;;;5113456;28;20051;-84
2022/06/10 05:24:59;;;;;;;6.32;1.90;;;14.40;99.90;;;;;;5096963;28;20467;-84
2022/06/10 05:27:25;;;;;;;5.50;1.75;;;14.40;99.90;;;;;;5096158;28;20111;-84
2022/06/10 05:29:51;;;;;;;3.55;2.00;;;14.40;99.90;;;;;;5095981;28;20028;-84
2022/06/10 05:32:17;;;;;;;4.10;2.00;;;14.50;99.90;;;;;;5096366;28;20028;-84
2022/06/10 05:34:47;;;;;;;5.32;1.65;;;14.50;99.90;;;;;;5096014;28;20454;-84
2022/06/10 05:37:19;;;;;;;6.03;2.10;;;14.50;99.90;;;;;;5113512;28;20031;-84
2022/06/10 05:39:45;;;;;;;4.97;1.77;;;14.50;99.90;;;;;;5096899;28;20040;-89
2022/06/10 05:42:12;;;;;;;4.97;1.95;;;14.60;99.90;;;;;;5096493;28;20039;-89
2022/06/10 05:44:42;;;;;;;5.15;1.83;;;14.60;99.90;;;;;;5107304;28;20012;-88
2022/06/10 05:47:11;;;;;;;5.78;1.77;;;14.60;99.90;;;;;;5116065;28;20032;-88
2022/06/10 05:49:41;;;;;;;3.60;1.90;;;14.60;99.90;;;;;;5116547;28;20144;-87
2022/06/10 05:52:10;;;;;;;4.10;2.10;;;14.70;99.90;;;;;;5107725;28;20024;-88
2022/06/10 05:54:37;;;;;;;6.63;2.00;;;14.70;99.90;;;;;;5113468;28;20028;-84
2022/06/10 05:57:03;;;;;;;3.65;1.70;;;14.70;99.90;;;;;;5095802;28;20024;-84
2022/06/10 05:59:29;;;;;;;4.35;1.90;;;14.80;99.90;;;;;;5095801;28;20496;-84
2022/06/10 06:01:56;;;;;;;5.30;1.88;;;14.90;99.90;;;;;;5112228;28;20024;-84
2022/06/10 06:04:22;;;;;;;7.28;2.10;;;15.00;99.90;;;;;;5096701;28;20373;-84
2022/06/10 06:06:48;;;;;;;4.57;2.17;;;14.90;99.90;;;;;;5096099;28;20107;-83
2022/06/10 06:09:14;;;;;;;4.72;1.88;;;15.00;99.90;;;;;;5096182;28;20051;-84
2022/06/10 06:11:41;;;;;;;5.90;1.92;;;15.00;99.90;;;;;;5112389;28;20066;-84
2022/06/10 06:14:07;;;;;;;4.78;2.00;;;15.10;99.90;;;;;;5095482;28;20063;-84
2022/06/10 06:16:33;;;;;;;4.47;1.80;;;15.20;99.90;;;;;;5099017;28;20028;-83
2022/06/10 06:18:59;;;;;;;7.00;2.00;;;15.20;99.90;;;;;;5102601;28;20039;-82
2022/06/10 06:21:25;;;;;;;7.72;1.73;;;15.30;99.90;;;;;;5102033;28;20024;-83
2022/06/10 06:23:51;;;;;;;5.65;1.83;;;15.30;99.90;;;;;;5083659;28;20048;-83
2022/06/10 06:26:16;;;;;;;5.55;1.55;;;15.40;99.90;;;;;;5083675;28;20031;-82
2022/06/10 06:28:43;;;;;;;6.05;1.92;;;15.40;99.90;;;;;;5082113;28;20028;-79
2022/06/10 06:31:10;;;;;;;4.75;2.33;;;15.40;99.90;;;;;;5099734;28;20047;-82
2022/06/10 06:33:36;;;;;;;3.97;2.03;;;15.50;99.90;;;;;;5101225;28;20024;-83
2022/06/10 06:36:04;;;;;;;4.90;1.95;;;15.50;99.90;;;;;;5083125;28;20035;-84
2022/06/10 06:38:30;;;;;;;4.50;1.83;;;15.50;99.90;;;;;;5082768;28;20477;-83
2022/06/10 06:40:55;;;;;;;4.65;1.98;;;15.60;99.90;;;;;;5098725;28;20031;-83
2022/06/10 06:43:21;;;;;;;4.72;2.05;;;15.60;99.90;;;;;;5084234;28;20111;-82
2022/06/10 06:45:47;;;;;;;6.07;2.03;;;15.60;99.90;;;;;;5098228;28;20090;-81
2022/06/10 06:48:13;;;;;;;4.22;1.60;;;15.70;99.90;;;;;;5080498;28;20471;-79
2022/06/10 06:50:48;;;;;;;7.82;1.88;;;15.70;99.90;;;;;;5098381;28;20111;-81
2022/06/10 06:53:14;;;;;;;4.90;1.70;;;15.80;99.90;;;;;;5079794;28;20036;-80
2022/06/10 06:55:41;;;;;;;4.38;1.90;;;15.80;99.90;;;;;;5097233;28;20031;-81
2022/06/10 06:58:11;;;;;;;7.88;1.80;;;15.80;99.90;;;;;;5097227;28;20020;-81
2022/06/10 07:00:37;;;;;;;7.82;2.80;;;15.90;99.90;;;;;;5079090;28;20024;-82
2022/06/10 07:03:03;;;;;;;7.78;1.77;;;15.90;99.90;;;;;;5093977;28;20028;-82
2022/06/10 07:05:29;;;;;;;4.38;1.70;;;16.00;99.90;;;;;;5095411;28;20020;-82
2022/06/10 07:07:55;;;;;;;5.00;1.73;;;16.00;99.90;;;;;;5093596;28;20396;-82
2022/06/10 07:10:21;;;;;;;7.97;1.80;;;16.10;99.90;;;;;;5095348;28;20373;-82
2022/06/10 07:12:47;;;;;;;7.70;1.70;;;16.10;99.90;;;;;;5076797;28;20118;-84
2022/06/10 07:15:13;;;;;;;5.50;1.52;;;16.10;99.90;;;;;;5102821;28;20044;-84
2022/06/10 07:17:40;;;;;;;7.60;1.38;;;16.20;99.90;;;;;;5095461;28;20052;-85
2022/06/10 07:20:07;;;;;;;3.55;1.52;;;16.30;99.90;;;;;;5093788;28;20427;-86
2022/06/10 07:22:32;;;;;;;3.30;1.50;;;16.30;99.90;;;;;;5095087;28;20028;-85
2022/06/10 07:24:58;;;;;;;3.45;1.40;;;16.30;99.90;;;;;;5093561;28;20027;-85
2022/06/10 07:27:24;;;;;;;4.97;2.42;;;16.30;99.90;;;;;;5095187;28;20031;-82
2022/06/10 07:29:50;;;;;;;6.20;2.00;;;16.40;99.90;;;;;;5094294;28;20533;-84
2022/06/10 07:32:16;;;;;;;5.00;1.60;;;16.40;99.90;;;;;;5100561;28;20035;-85
2022/06/10 07:34:42;;;;;;;5.75;1.40;;;16.50;99.90;;;;;;5100696;28;20035;-83
2022/06/10 07:37:08;;;;;;;4.53;1.42;;;16.60;99.90;;;;;;5103095;28;20024;-86
2022/06/10 07:39:34;;;;;;;6.05;1.70;;;16.60;99.90;;;;;;5104756;28;20438;-84
2022/06/10 07:42:00;;;;;;;2.10;1.27;;;16.70;99.90;;;;;;5102150;28;20024;-83
2022/06/10 07:44:37;;;;;;;6.10;1.77;;;16.80;99.90;;;;;;5104321;28;20066;-84
2022/06/10 07:47:12;;;;;;;7.43;1.60;;;16.80;99.90;;;;;;5082581;28;20089;-82
2022/06/10 07:49:38;;;;;;;7.00;1.38;;;16.90;99.90;;;;;;5082807;28;20490;-82
2022/06/10 07:52:05;;;;;;;4.00;1.50;;;17.00;99.90;;;;;;5100043;28;20354;-82
2022/06/10 07:54:33;;;;;;;4.72;1.60;;;17.00;99.90;;;;;;5082920;28;20032;-82
2022/06/10 07:57:00;;;;;;;6.60;1.92;;;17.00;99.90;;;;;;5092118;28;20046;-82
2022/06/10 07:59:26;;;;;;;4.15;1.50;;;17.10;99.90;;;;;;5082079;28;20025;-81
2022/06/10 08:01:51;;;;;;;4.88;1.50;;;17.10;99.90;;;;;;5083195;28;20024;-82
2022/06/10 08:04:17;;;;;;;6.35;1.95;;;17.20;99.90;;;;;;5086507;28;20085;-82
2022/06/10 08:06:46;;;;;;;5.97;1.85;;;17.30;99.90;;;;;;5081943;28;20021;-82
2022/06/10 08:09:12;;;;;;;5.15;1.30;;;17.30;99.90;;;;;;5092137;28;20023;-82
2022/06/10 08:11:39;;;;;;;6.85;1.27;;;17.30;99.90;;;;;;5104222;28;20032;-84
2022/06/10 08:14:05;;;;;;;2.75;1.30;;;17.40;99.90;;;;;;5102850;28;20395;-86
2022/06/10 08:16:32;;;;;;;6.80;1.63;;;17.40;99.90;;;;;;5076515;28;20465;-85
2022/06/10 08:18:57;;;;;;;6.13;1.40;;;17.40;99.90;;;;;;5075756;28;20122;-85
2022/06/10 08:24:09;;;;;;;4.18;1.38;;;17.50;99.90;;;;;;5092284;28;20051;-86
2022/06/10 08:26:35;;;;;;;6.25;1.63;;;17.60;99.90;;;;;;5114485;28;20024;-85
2022/06/10 08:29:03;;;;;;;4.38;1.25;;;17.60;99.90;;;;;;5113979;28;20032;-82
2022/06/10 08:31:29;;;;;;;4.30;1.50;;;17.60;99.90;;;;;;5111397;28;20488;-83
2022/06/10 08:33:55;;;;;;;5.22;1.63;;;17.60;99.90;;;;;;5095325;28;20031;-83
2022/06/10 08:36:21;;;;;;;4.15;1.20;;;17.70;99.90;;;;;;5112957;28;20027;-84
2022/06/10 08:38:47;;;;;;;4.13;1.40;;;17.70;99.90;;;;;;5114378;28;20089;-85
2022/06/10 08:41:22;;;;;;;4.93;1.50;;;17.80;99.90;;;;;;5110468;28;20023;-84
2022/06/10 08:44:12;;;;;;;3.20;1.10;;;17.80;99.90;;;;;;5114334;28;20027;-84
2022/06/10 08:46:50;;;;;;;4.45;1.40;;;17.90;99.90;;;;;;5096235;28;20023;-86
2022/06/10 08:49:35;;;;;;;5.75;1.90;;;18.00;99.90;;;;;;5095964;28;20032;-86
2022/06/10 08:52:40;;;;;;;6.70;1.40;;;18.00;99.90;;;;;;5097130;28;20465;-82
2022/06/10 08:55:17;;;;;;;5.00;1.20;;;18.10;99.90;;;;;;5062330;28;20048;-82
2022/06/10 08:57:48;;;;;;;5.57;1.52;;;18.10;99.90;;;;;;5093763;28;20427;-81
2022/06/10 09:00:21;;;;;;;5.20;1.73;;;18.10;99.90;;;;;;5076191;28;20181;-83
2022/06/10 09:03:00;;;;;;;3.25;1.13;;;18.20;99.90;;;;;;5055956;28;20128;-82
2022/06/10 09:05:35;;;;;;;5.97;1.15;;;18.20;99.90;;;;;;5072455;28;20107;-82
2022/06/10 09:08:06;;;;;;;5.22;1.25;;;18.30;99.90;;;;;;5071794;28;20394;-82
2022/06/10 09:10:43;;;;;;;3.63;1.00;;;18.20;99.90;;;;;;5073418;28;20501;-85
2022/06/10 09:13:11;;;;;;;3.10;1.10;;;18.30;99.80;;;;;;5080690;28;20379;-85
2022/06/10 09:15:51;;;;;;;4.60;1.20;;;18.40;99.60;;;;;;5113817;28;20080;-84
2022/06/10 09:18:27;;;;;;;2.92;0.98;;;18.40;98.60;;;;;;5095500;28;20028;-84
2022/06/10 09:21:03;;;;;;;5.35;1.27;;;18.40;97.90;;;;;;5089493;28;20032;-81
2022/06/10 09:23:43;;;;;;;5.25;1.10;;;18.30;98.60;;;;;;5075614;28;20055;-83
2022/06/10 09:26:17;;;;;;;3.75;0.93;;;18.40;98.70;;;;;;5092616;28;20024;-81
2022/06/10 09:28:42;;;;;;;5.80;1.30;;;18.40;99.10;;;;;;5092704;28;20111;-83
2022/06/10 09:31:53;;;;;;;10.23;3.40;;;18.40;98.90;;;;;;5083466;28;20492;-87
2022/06/10 09:34:23;;;;;;;5.68;3.15;;;18.50;95.10;;;;;;5102832;28;20121;-87
2022/06/10 09:37:02;;;;;;;3.45;1.33;;;18.50;96.60;;;;;;5113655;28;20103;-88
2022/06/10 09:42:30;;;;;;;6.35;1.25;;;18.50;96.50;;;;;;5097396;28;20094;-83
2022/06/10 09:45:24;;;;;;;5.15;1.13;;;18.50;96.30;;;;;;5100252;28;20024;-78
2022/06/10 09:48:22;;;;;;;3.97;0.90;;;18.60;94.10;;;;;;5072700;28;20032;-87
2022/06/10 09:51:04;;;;;;;4.55;1.30;;;18.60;93.70;;;;;;5098401;28;20039;-83
2022/06/10 09:53:52;;;;;;;3.00;1.00;;;18.70;95.70;;;;;;5064944;28;20040;-81
2022/06/10 09:56:53;;;;;;;1.20;0.70;;;18.70;96.30;;;;;;5081072;28;20034;-75
2022/06/10 09:59:55;;;;;;;1.75;0.80;;;18.90;96.00;;;;;;5075717;28;20103;-74
2022/06/10 10:02:20;;;;;;;;;;;19.10;93.40;;;;;;5045857;28;20038;-74
2022/06/10 10:05:18;;;;;;;5.68;0.88;;;19.10;92.40;;;;;;5092554;28;20280;-74
2022/06/10 10:07:53;;;;;;;2.20;0.60;;;19.10;91.40;;;;;;5086929;28;20496;-75
2022/06/10 10:10:37;;;;;;;6.82;1.85;;;19.10;91.70;;;;;;5076305;28;20032;-75
2022/06/10 10:13:45;;;;;;;4.82;1.33;;;19.10;92.60;;;;;;5094420;28;20041;-76
2022/06/10 10:16:23;;;;;;;5.60;1.20;;;19.10;93.20;;;;;;5076185;28;20067;-76
2022/06/10 10:18:58;;;;;;;7.30;2.42;;;19.10;93.20;;;;;;5076970;28;20430;-76
2022/06/10 10:21:51;;;;;;;5.75;1.20;;;19.10;93.20;;;;;;5076828;28;20059;-76
2022/06/10 10:24:22;;;;;;;10.40;1.10;;;19.20;93.10;;;;;;5083577;28;20507;-76
2022/06/10 10:26:51;;;;;;;4.13;1.23;;;19.20;93.60;;;;;;5094983;28;20035;-75
2022/06/10 10:29:18;;;;;;;5.32;1.15;;;19.10;93.30;;;;;;5076195;28;20063;-76
2022/06/10 10:32:18;;;;;;;5.85;0.75;;;19.40;91.90;;;;;;5076801;28;20028;-76
2022/06/10 10:34:50;;;;;;;3.00;0.70;;;19.50;91.10;;;;;;5076659;28;20024;-76
2022/06/10 10:37:31;;;;;;;2.92;0.93;;;19.50;92.10;;;;;;5076014;28;20115;-76
2022/06/10 10:40:04;;;;;;;2.55;1.20;;;19.50;91.60;;;;;;5069913;28;20396;-78
2022/06/10 10:42:35;;;;;;;4.28;1.00;;;19.50;91.30;;;;;;5076812;28;20384;-80
2022/06/10 10:45:30;;;;;;;3.88;0.90;;;19.70;91.90;;;;;;5094028;28;20032;-78
2022/06/10 10:48:05;;;;;;;3.80;0.70;;;19.90;90.40;;;;;;5073919;28;20055;-79
2022/06/10 10:50:33;;;;;;;3.35;0.80;;;19.90;89.10;;;;;;5093661;28;20079;-80
2022/06/10 10:53:19;;;;;;;6.07;0.82;;;19.90;89.30;;;;;;5075028;28;20024;-78
2022/06/10 10:55:50;;;;;;;5.93;0.93;;;19.90;90.20;;;;;;5093927;28;20115;-79
2022/06/10 10:58:24;;;;;;;9.27;2.47;;;19.90;89.50;;;;;;5086048;28;20440;-79
2022/06/10 11:00:57;;;;;;;5.85;1.00;;;19.90;90.00;;;;;;5078722;28;20059;-79
2022/06/10 11:03:27;;;;;;;12.65;5.03;;;19.90;89.00;;;;;;5075035;28;20035;-79
2022/06/10 11:05:53;;;;;;;8.07;2.60;;;20.00;88.90;;;;;;5087520;28;20031;-80
2022/06/10 11:08:36;;;;;;;3.08;0.80;;;20.00;87.30;;;;;;5075267;28;20020;-79
2022/06/10 11:11:07;;;;;;;8.00;2.17;;;20.10;85.80;;;;;;5067525;28;20024;-78
2022/06/10 11:13:46;;;;;;;;;;;20.20;86.90;;;;;;5096044;28;20107;-79
2022/06/10 11:16:35;;;;;;;3.28;1.00;;;20.30;85.20;;;;;;5085305;28;19958;-80
2022/06/10 11:19:10;;;;;;;2.65;0.70;;;20.30;84.90;;;;;;5093930;28;20028;-78
2022/06/10 11:21:48;;;;;;;3.08;0.90;;;20.30;84.50;;;;;;5093568;28;20028;-78
2022/06/10 11:24:17;;;;;;;4.60;0.68;;;20.40;81.60;;;;;;5074069;28;20028;-78
2022/06/10 11:26:58;;;;;;;6.70;1.85;;;20.50;80.30;;;;;;5092466;28;20024;-78
2022/06/10 11:29:26;;;;;;;2.92;0.75;;;20.50;79.90;;;;;;5075368;28;20538;-77
2022/06/10 11:32:02;;;;;;;1.73;0.73;;;20.60;79.20;;;;;;5075546;28;20051;-78
2022/06/10 11:34:36;;;;;;;3.15;0.80;;;20.60;77.50;;;;;;5093473;28;20032;-78
2022/06/10 11:37:38;;;;;;;2.33;1.05;;;20.70;79.20;;;;;;5082077;28;20024;-78
2022/06/10 11:40:35;;;;;;;2.60;0.85;;;20.60;80.90;;;;;;5069770;28;20036;-77
2022/06/10 11:43:09;;;;;;;4.57;0.90;;;20.60;82.60;;;;;;5086130;28;20063;-77
2022/06/10 11:45:48;;;;;;;3.40;1.30;;;20.80;82.00;;;;;;5053064;28;20031;-77
2022/06/10 11:48:39;;;;;;;1.95;0.63;;;21.00;80.60;;;;;;5067433;28;20017;-77
2022/06/10 11:51:27;;;;;;;4.68;0.75;;;21.00;79.60;;;;;;5097309;28;20024;-78
2022/06/10 11:54:12;;;;;;;5.45;0.77;;;20.90;79.20;;;;;;5081266;28;20036;-77
2022/06/10 12:00:12;;;;;;;2.63;0.70;;;21.30;79.90;;;;;;5097352;28;20557;-78
2022/06/10 12:02:43;;;;;;;2.60;0.57;;;21.50;79.60;;;;;;5068262;28;20145;-77
2022/06/10 12:05:14;;;;;;;4.68;0.80;;;21.60;77.40;;;;;;5073593;28;20039;-77
2022/06/10 12:07:46;;;;;;;2.95;0.75;;;21.70;76.50;;;;;;5087118;28;20024;-77
2022/06/10 12:10:19;;;;;;;5.18;0.90;;;21.70;76.80;;;;;;5083504;28;20031;-76
2022/06/10 12:12:47;;;;;;;4.13;0.90;;;21.80;77.50;;;;;;5087248;28;20043;-77
2022/06/10 12:15:27;;;;;;;3.10;0.68;;;21.90;78.80;;;;;;5094291;28;20438;-77
2022/06/10 12:17:57;;;;;;;2.50;0.70;;;22.00;78.90;;;;;;5091591;28;20030;-78
2022/06/10 12:20:41;;;;;;;4.35;0.82;;;22.00;80.60;;;;;;5096941;28;20027;-78
2022/06/10 12:23:27;;;;;;;2.85;0.80;;;22.20;79.90;;;;;;5097901;28;20031;-78
2022/06/10 12:26:25;;;;;;;2.13;0.60;;;22.30;77.60;;;;;;5100992;28;20027;-77
2022/06/10 12:29:10;;;;;;;7.72;1.00;;;22.40;78.20;;;;;;5091825;28;20020;-78
2022/06/10 12:31:49;;;;;;;4.05;0.95;;;22.60;77.20;;;;;;5097687;28;20020;-78
2022/06/10 12:34:24;;;;;;;5.30;1.10;;;22.70;75.60;;;;;;5097961;28;20027;-77
2022/06/10 12:37:11;;;;;;;5.20;0.95;;;22.70;75.90;;;;;;5100266;28;20479;-77
2022/06/10 12:39:36;;;;;;;3.20;0.70;;;22.90;74.00;;;;;;5098350;28;20465;-79
2022/06/10 12:42:28;;;;;;;3.75;1.17;;;23.00;75.70;;;;;;5098445;28;20046;-78
2022/06/10 12:44:59;;;;;;;2.70;0.90;;;23.10;74.50;;;;;;5097935;28;20049;-79
2022/06/10 12:47:34;;;;;;;2.50;0.80;;;23.20;73.60;;;;;;5098029;28;20016;-76
2022/06/10 12:50:16;;;;;;;5.75;0.90;;;23.30;75.50;;;;;;5117971;28;20435;-84
2022/06/10 12:53:09;;;;;;;2.92;0.65;;;23.50;75.60;;;;;;5092896;28;20520;-80
2022/06/10 12:55:53;;;;;;;3.85;0.90;;;23.60;72.50;;;;;;5092994;28;20078;-80
2022/06/10 12:58:37;;;;;;;3.83;1.08;;;23.80;73.30;;;;;;5092563;28;20016;-80
2022/06/10 13:01:23;;;;;;;3.80;1.10;;;24.00;71.80;;;;;;5092084;28;20034;-82
2022/06/10 13:03:56;;;;;;;4.53;0.88;;;24.10;71.50;;;;;;5091515;28;20473;-81
2022/06/10 13:06:44;;;;;;;5.43;0.77;;;24.20;70.70;;;;;;5090690;28;20028;-78
2022/06/10 13:09:27;;;;;;;2.13;0.70;;;24.40;68.50;;;;;;5077520;28;20046;-77
2022/06/10 13:11:57;;;;;;;2.50;0.80;;;24.50;65.70;;;;;;5091550;28;20024;-79
2022/06/10 13:14:36;;;;;;;3.60;0.70;;;24.70;66.00;;;;;;5091833;28;20040;-76
2022/06/10 13:17:27;;;;;;;3.22;0.77;;;24.90;65.90;;;;;;5073752;28;20020;-79
2022/06/10 13:19:53;;;;;;;;;;;25.10;64.90;;;;;;5076370;28;20447;-77
2022/06/10 13:22:21;;;;;;;6.35;0.73;;;25.30;64.40;;;;;;5094917;28;19935;-76
2022/06/10 13:24:52;;;;;;;1.95;0.60;;;25.40;63.60;;;;;;5077467;28;20043;-78
2022/06/10 13:27:21;;;;;;;;;;;25.50;62.80;;;;;;5077775;28;20050;-77
2022/06/10 13:29:52;;;;;;;2.40;0.70;;;25.80;61.90;;;;;;5078098;28;19929;-77
2022/06/10 13:32:18;;;;;;;1.30;0.68;;;26.10;61.00;;;;;;5077325;28;20024;-77